sensor_id;sensor_type;location;lat;lon;timestamp;temperature;humidity
59923;DHT22;45778;51.142;3.732;2023-01-28T00:02:07;5.40;99.90
59923;DHT22;45778;51.142;3.732;2023-01-28T00:04:33;5.30;99.90
59923;DHT22;45778;51.142;3.732;2023-01-28T00:06:58;5.20;99.90
59923;DHT22;45778;51.142;3.732;2023-01-28T00:09:24;5.20;99.90
59923;DHT22;45778;51.142;3.732;2023-01-28T00:11:50;5.30;99.90
59923;DHT22;45778;51.142;3.732;2023-01-28T00:14:16;5.30;99.90
59923;DHT22;45778;51.142;3.732;2023-01-28T00:16:42;5.40;99.90
59923;DHT22;45778;51.142;3.732;2023-01-28T00:19:08;5.30;99.90
59923;DHT22;45778;51.142;3.732;2023-01-28T00:21:34;5.20;99.90
59923;DHT22;45778;51.142;3.732;2023-01-28T00:24:00;5.10;99.90
59923;DHT22;45778;51.142;3.732;2023-01-28T00:26:26;5.00;99.90
59923;DHT22;45778;51.142;3.732;2023-01-28T00:28:52;5.00;99.90
59923;DHT22;45778;51.142;3.732;2023-01-28T00:31:21;5.00;99.90
59923;DHT22;45778;51.142;3.732;2023-01-28T00:33:48;5.20;99.90
59923;DHT22;45778;51.142;3.732;2023-01-28T00:36:15;5.30;99.90
59923;DHT22;45778;51.142;3.732;2023-01-28T00:38:41;5.30;99.90
59923;DHT22;45778;51.142;3.732;2023-01-28T00:43:35;5.30;99.90
59923;DHT22;45778;51.142;3.732;2023-01-28T00:46:01;5.30;99.90
59923;DHT22;45778;51.142;3.732;2023-01-28T00:48:27;5.30;99.90
59923;DHT22;45778;51.142;3.732;2023-01-28T00:50:52;5.20;99.90
59923;DHT22;45778;51.142;3.732;2023-01-28T00:53:18;5.10;99.90
59923;DHT22;45778;51.142;3.732;2023-01-28T00:55:44;5.10;99.90
59923;DHT22;45778;51.142;3.732;2023-01-28T00:58:09;5.10;99.90
59923;DHT22;45778;51.142;3.732;2023-01-28T01:00:35;5.10;99.90
59923;DHT22;45778;51.142;3.732;2023-01-28T01:03:01;5.10;99.90
59923;DHT22;45778;51.142;3.732;2023-01-28T01:05:26;5.10;99.90
59923;DHT22;45778;51.142;3.732;2023-01-28T01:07:54;5.20;99.90
59923;DHT22;45778;51.142;3.732;2023-01-28T01:10:20;5.10;99.90
59923;DHT22;45778;51.142;3.732;2023-01-28T01:12:47;5.20;99.90
59923;DHT22;45778;51.142;3.732;2023-01-28T01:15:13;5.10;99.90
59923;DHT22;45778;51.142;3.732;2023-01-28T01:17:41;5.00;99.90
59923;DHT22;45778;51.142;3.732;2023-01-28T01:20:13;5.00;99.90
59923;DHT22;45778;51.142;3.732;2023-01-28T01:22:39;4.90;99.90
59923;DHT22;45778;51.142;3.732;2023-01-28T01:25:06;5.00;99.90
59923;DHT22;45778;51.142;3.732;2023-01-28T01:27:32;5.00;99.90
59923;DHT22;45778;51.142;3.732;2023-01-28T01:29:58;5.10;99.90
59923;DHT22;45778;51.142;3.732;2023-01-28T01:32:33;5.10;99.90
59923;DHT22;45778;51.142;3.732;2023-01-28T01:35:04;5.20;99.90
59923;DHT22;45778;51.142;3.732;2023-01-28T01:37:33;5.20;99.90
59923;DHT22;45778;51.142;3.732;2023-01-28T01:39:59;5.20;99.90
59923;DHT22;45778;51.142;3.732;2023-01-28T01:42:30;5.20;99.90
59923;DHT22;45778;51.142;3.732;2023-01-28T01:45:10;5.10;99.90
59923;DHT22;45778;51.142;3.732;2023-01-28T01:50:36;4.80;99.90
59923;DHT22;45778;51.142;3.732;2023-01-28T01:53:11;4.90;99.90
59923;DHT22;45778;51.142;3.732;2023-01-28T01:55:41;4.70;99.90
59923;DHT22;45778;51.142;3.732;2023-01-28T01:58:12;4.80;99.90
59923;DHT22;45778;51.142;3.732;2023-01-28T02:00:41;4.60;99.90
59923;DHT22;45778;51.142;3.732;2023-01-28T02:03:08;4.70;99.90
59923;DHT22;45778;51.142;3.732;2023-01-28T02:05:35;4.70;99.90
59923;DHT22;45778;51.142;3.732;2023-01-28T02:08:01;4.50;99.90
59923;DHT22;45778;51.142;3.732;2023-01-28T02:11:08;4.30;99.90
59923;DHT22;45778;51.142;3.732;2023-01-28T02:13:38;4.30;99.90
59923;DHT22;45778;51.142;3.732;2023-01-28T02:16:06;4.30;99.90
59923;DHT22;45778;51.142;3.732;2023-01-28T02:18:33;4.60;99.90
59923;DHT22;45778;51.142;3.732;2023-01-28T02:32:19;4.30;99.90
59923;DHT22;45778;51.142;3.732;2023-01-28T02:37:53;4.60;99.90
59923;DHT22;45778;51.142;3.732;2023-01-28T02:40:26;4.60;99.90
59923;DHT22;45778;51.142;3.732;2023-01-28T02:42:55;4.60;99.90
59923;DHT22;45778;51.142;3.732;2023-01-28T02:45:40;4.60;99.90
59923;DHT22;45778;51.142;3.732;2023-01-28T02:48:24;4.60;99.90
59923;DHT22;45778;51.142;3.732;2023-01-28T02:51:02;4.80;99.90
59923;DHT22;45778;51.142;3.732;2023-01-28T02:53:39;4.70;99.90
59923;DHT22;45778;51.142;3.732;2023-01-28T02:59:27;5.00;99.90
59923;DHT22;45778;51.142;3.732;2023-01-28T03:02:36;4.90;99.90
59923;DHT22;45778;51.142;3.732;2023-01-28T03:05:22;4.70;99.90
59923;DHT22;45778;51.142;3.732;2023-01-28T03:07:51;4.60;99.90
59923;DHT22;45778;51.142;3.732;2023-01-28T03:10:20;4.50;99.90
59923;DHT22;45778;51.142;3.732;2023-01-28T03:12:50;4.70;99.90
59923;DHT22;45778;51.142;3.732;2023-01-28T03:15:47;4.70;99.90
59923;DHT22;45778;51.142;3.732;2023-01-28T03:18:44;4.70;99.90
59923;DHT22;45778;51.142;3.732;2023-01-28T03:21:41;4.80;99.90
59923;DHT22;45778;51.142;3.732;2023-01-28T03:24:29;4.80;99.90
59923;DHT22;45778;51.142;3.732;2023-01-28T03:27:18;4.70;99.90
59923;DHT22;45778;51.142;3.732;2023-01-28T03:30:19;4.70;99.90
59923;DHT22;45778;51.142;3.732;2023-01-28T03:33:06;4.60;99.90
59923;DHT22;45778;51.142;3.732;2023-01-28T03:35:51;4.30;99.90
59923;DHT22;45778;51.142;3.732;2023-01-28T03:38:35;4.40;99.90
59923;DHT22;45778;51.142;3.732;2023-01-28T03:41:08;4.20;99.90
59923;DHT22;45778;51.142;3.732;2023-01-28T03:43:34;4.30;99.90
59923;DHT22;45778;51.142;3.732;2023-01-28T03:46:01;4.30;99.90
59923;DHT22;45778;51.142;3.732;2023-01-28T03:48:27;4.50;99.90
59923;DHT22;45778;51.142;3.732;2023-01-28T03:50:57;4.50;99.90
59923;DHT22;45778;51.142;3.732;2023-01-28T03:53:25;4.70;99.90
59923;DHT22;45778;51.142;3.732;2023-01-28T03:55:52;4.60;99.90
59923;DHT22;45778;51.142;3.732;2023-01-28T03:58:18;4.50;99.90
59923;DHT22;45778;51.142;3.732;2023-01-28T04:00:44;4.50;99.90
59923;DHT22;45778;51.142;3.732;2023-01-28T04:03:14;4.60;99.90
59923;DHT22;45778;51.142;3.732;2023-01-28T04:06:07;4.70;99.90
59923;DHT22;45778;51.142;3.732;2023-01-28T04:08:31;4.70;99.90
59923;DHT22;45778;51.142;3.732;2023-01-28T04:10:57;4.60;99.90
59923;DHT22;45778;51.142;3.732;2023-01-28T04:13:23;4.70;99.90
59923;DHT22;45778;51.142;3.732;2023-01-28T04:15:48;4.70;99.90
59923;DHT22;45778;51.142;3.732;2023-01-28T04:18:14;4.60;99.90
59923;DHT22;45778;51.142;3.732;2023-01-28T04:20:40;4.60;99.90
59923;DHT22;45778;51.142;3.732;2023-01-28T04:23:06;4.70;99.90
59923;DHT22;45778;51.142;3.732;2023-01-28T04:25:32;4.70;99.90
59923;DHT22;45778;51.142;3.732;2023-01-28T04:27:58;4.70;99.90
59923;DHT22;45778;51.142;3.732;2023-01-28T04:30:24;4.80;99.90
59923;DHT22;45778;51.142;3.732;2023-01-28T04:32:50;4.80;99.90
59923;DHT22;45778;51.142;3.732;2023-01-28T04:35:17;4.80;99.90
59923;DHT22;45778;51.142;3.732;2023-01-28T04:37:43;4.80;99.90
59923;DHT22;45778;51.142;3.732;2023-01-28T04:40:10;4.80;99.90
59923;DHT22;45778;51.142;3.732;2023-01-28T04:42:35;4.80;99.90
59923;DHT22;45778;51.142;3.732;2023-01-28T04:45:01;4.80;99.90
59923;DHT22;45778;51.142;3.732;2023-01-28T04:47:27;4.90;99.90
59923;DHT22;45778;51.142;3.732;2023-01-28T04:49:52;4.80;99.90
59923;DHT22;45778;51.142;3.732;2023-01-28T04:52:18;4.90;99.90
59923;DHT22;45778;51.142;3.732;2023-01-28T04:54:44;4.80;99.90
59923;DHT22;45778;51.142;3.732;2023-01-28T04:57:09;4.90;99.90
59923;DHT22;45778;51.142;3.732;2023-01-28T04:59:35;5.00;99.90
59923;DHT22;45778;51.142;3.732;2023-01-28T05:02:01;4.90;99.90
59923;DHT22;45778;51.142;3.732;2023-01-28T05:04:26;4.60;99.90
59923;DHT22;45778;51.142;3.732;2023-01-28T05:06:52;4.30;99.90
59923;DHT22;45778;51.142;3.732;2023-01-28T05:09:18;4.30;99.90
59923;DHT22;45778;51.142;3.732;2023-01-28T05:11:44;4.40;99.90
59923;DHT22;45778;51.142;3.732;2023-01-28T05:14:09;4.10;99.90
59923;DHT22;45778;51.142;3.732;2023-01-28T05:16:35;4.10;99.90
59923;DHT22;45778;51.142;3.732;2023-01-28T05:19:01;4.00;99.90
59923;DHT22;45778;51.142;3.732;2023-01-28T05:21:27;4.20;99.90
59923;DHT22;45778;51.142;3.732;2023-01-28T05:23:53;4.40;99.90
59923;DHT22;45778;51.142;3.732;2023-01-28T05:26:19;4.10;99.90
59923;DHT22;45778;51.142;3.732;2023-01-28T05:28:44;4.00;99.90
59923;DHT22;45778;51.142;3.732;2023-01-28T05:31:10;4.20;99.90
59923;DHT22;45778;51.142;3.732;2023-01-28T05:33:36;4.10;99.90
59923;DHT22;45778;51.142;3.732;2023-01-28T05:36:02;4.10;99.90
59923;DHT22;45778;51.142;3.732;2023-01-28T05:38:28;4.30;99.90
59923;DHT22;45778;51.142;3.732;2023-01-28T05:40:54;4.50;99.90
59923;DHT22;45778;51.142;3.732;2023-01-28T05:43:20;4.70;99.90
59923;DHT22;45778;51.142;3.732;2023-01-28T05:45:46;4.60;99.90
59923;DHT22;45778;51.142;3.732;2023-01-28T05:48:13;4.60;99.90
59923;DHT22;45778;51.142;3.732;2023-01-28T05:50:39;4.80;99.90
59923;DHT22;45778;51.142;3.732;2023-01-28T05:53:05;4.50;99.90
59923;DHT22;45778;51.142;3.732;2023-01-28T05:55:31;4.30;99.90
59923;DHT22;45778;51.142;3.732;2023-01-28T05:57:57;4.20;99.90
59923;DHT22;45778;51.142;3.732;2023-01-28T06:00:23;4.20;99.90
59923;DHT22;45778;51.142;3.732;2023-01-28T06:02:50;4.30;99.90
59923;DHT22;45778;51.142;3.732;2023-01-28T06:05:16;4.50;99.90
59923;DHT22;45778;51.142;3.732;2023-01-28T06:07:46;4.60;99.90
59923;DHT22;45778;51.142;3.732;2023-01-28T06:10:12;4.30;99.90
59923;DHT22;45778;51.142;3.732;2023-01-28T06:12:38;4.30;99.90
59923;DHT22;45778;51.142;3.732;2023-01-28T06:15:04;4.30;99.90
59923;DHT22;45778;51.142;3.732;2023-01-28T06:17:29;4.40;99.90
59923;DHT22;45778;51.142;3.732;2023-01-28T06:19:55;4.10;99.90
59923;DHT22;45778;51.142;3.732;2023-01-28T06:22:21;4.00;99.90
59923;DHT22;45778;51.142;3.732;2023-01-28T06:24:47;4.00;99.90
59923;DHT22;45778;51.142;3.732;2023-01-28T06:27:12;4.10;99.90
59923;DHT22;45778;51.142;3.732;2023-01-28T06:29:38;4.20;99.90
59923;DHT22;45778;51.142;3.732;2023-01-28T06:32:04;4.30;99.90
59923;DHT22;45778;51.142;3.732;2023-01-28T06:34:30;4.20;99.90
59923;DHT22;45778;51.142;3.732;2023-01-28T06:36:56;4.10;99.90
59923;DHT22;45778;51.142;3.732;2023-01-28T06:39:22;4.20;99.90
59923;DHT22;45778;51.142;3.732;2023-01-28T06:41:48;4.40;99.90
59923;DHT22;45778;51.142;3.732;2023-01-28T06:44:14;4.60;99.90
59923;DHT22;45778;51.142;3.732;2023-01-28T06:46:40;4.70;99.90
59923;DHT22;45778;51.142;3.732;2023-01-28T06:49:06;4.70;99.90
59923;DHT22;45778;51.142;3.732;2023-01-28T06:51:32;4.60;99.90
59923;DHT22;45778;51.142;3.732;2023-01-28T06:53:57;4.80;99.90
59923;DHT22;45778;51.142;3.732;2023-01-28T06:56:23;4.70;99.90
59923;DHT22;45778;51.142;3.732;2023-01-28T06:58:49;4.60;99.90
59923;DHT22;45778;51.142;3.732;2023-01-28T07:01:14;4.70;99.90
59923;DHT22;45778;51.142;3.732;2023-01-28T07:03:40;4.60;99.90
59923;DHT22;45778;51.142;3.732;2023-01-28T07:06:06;4.70;99.90
59923;DHT22;45778;51.142;3.732;2023-01-28T07:08:31;4.70;99.90
59923;DHT22;45778;51.142;3.732;2023-01-28T07:10:58;4.70;99.90
59923;DHT22;45778;51.142;3.732;2023-01-28T07:13:23;4.80;99.90
59923;DHT22;45778;51.142;3.732;2023-01-28T07:15:49;4.70;99.90
59923;DHT22;45778;51.142;3.732;2023-01-28T07:18:15;4.70;99.90
59923;DHT22;45778;51.142;3.732;2023-01-28T07:20:41;4.80;99.90
59923;DHT22;45778;51.142;3.732;2023-01-28T07:23:07;4.90;99.90
59923;DHT22;45778;51.142;3.732;2023-01-28T07:25:33;4.80;99.90
59923;DHT22;45778;51.142;3.732;2023-01-28T07:27:58;4.70;99.90
59923;DHT22;45778;51.142;3.732;2023-01-28T07:30:24;4.70;99.90
59923;DHT22;45778;51.142;3.732;2023-01-28T07:32:57;4.50;99.90
59923;DHT22;45778;51.142;3.732;2023-01-28T07:35:23;4.50;99.90
59923;DHT22;45778;51.142;3.732;2023-01-28T07:37:53;4.50;99.90
59923;DHT22;45778;51.142;3.732;2023-01-28T07:40:21;4.40;99.90
59923;DHT22;45778;51.142;3.732;2023-01-28T07:42:47;4.50;99.90
59923;DHT22;45778;51.142;3.732;2023-01-28T07:45:13;4.60;99.90
59923;DHT22;45778;51.142;3.732;2023-01-28T07:47:39;4.50;99.90
59923;DHT22;45778;51.142;3.732;2023-01-28T07:50:05;4.60;99.90
59923;DHT22;45778;51.142;3.732;2023-01-28T07:52:31;4.70;99.90
59923;DHT22;45778;51.142;3.732;2023-01-28T07:55:03;4.70;99.90
59923;DHT22;45778;51.142;3.732;2023-01-28T07:57:28;4.60;99.90
59923;DHT22;45778;51.142;3.732;2023-01-28T07:59:54;4.60;99.90
59923;DHT22;45778;51.142;3.732;2023-01-28T08:02:20;4.50;99.90
59923;DHT22;45778;51.142;3.732;2023-01-28T08:04:46;4.50;99.90
59923;DHT22;45778;51.142;3.732;2023-01-28T08:07:12;4.50;99.90
59923;DHT22;45778;51.142;3.732;2023-01-28T08:09:37;4.50;99.90
59923;DHT22;45778;51.142;3.732;2023-01-28T08:12:03;4.50;99.90
59923;DHT22;45778;51.142;3.732;2023-01-28T08:14:29;4.50;99.90
59923;DHT22;45778;51.142;3.732;2023-01-28T08:16:56;4.50;99.90
59923;DHT22;45778;51.142;3.732;2023-01-28T08:19:21;4.80;99.90
59923;DHT22;45778;51.142;3.732;2023-01-28T08:21:47;4.80;99.90
59923;DHT22;45778;51.142;3.732;2023-01-28T08:24:13;5.00;99.90
59923;DHT22;45778;51.142;3.732;2023-01-28T08:26:39;5.00;99.90
59923;DHT22;45778;51.142;3.732;2023-01-28T08:29:04;5.10;99.90
59923;DHT22;45778;51.142;3.732;2023-01-28T08:31:30;5.20;99.90
59923;DHT22;45778;51.142;3.732;2023-01-28T08:33:56;5.30;99.90
59923;DHT22;45778;51.142;3.732;2023-01-28T08:36:22;5.40;99.90
59923;DHT22;45778;51.142;3.732;2023-01-28T08:38:54;5.50;99.90
59923;DHT22;45778;51.142;3.732;2023-01-28T08:41:21;5.30;99.90
59923;DHT22;45778;51.142;3.732;2023-01-28T08:43:47;5.30;99.90
59923;DHT22;45778;51.142;3.732;2023-01-28T08:46:13;5.40;99.90
59923;DHT22;45778;51.142;3.732;2023-01-28T08:48:39;5.50;99.90
59923;DHT22;45778;51.142;3.732;2023-01-28T08:51:05;5.50;99.90
59923;DHT22;45778;51.142;3.732;2023-01-28T08:53:31;5.50;99.90
59923;DHT22;45778;51.142;3.732;2023-01-28T08:55:56;5.60;99.90
59923;DHT22;45778;51.142;3.732;2023-01-28T08:58:22;5.60;99.90
59923;DHT22;45778;51.142;3.732;2023-01-28T09:00:49;5.60;99.90
59923;DHT22;45778;51.142;3.732;2023-01-28T09:03:15;5.70;99.90
59923;DHT22;45778;51.142;3.732;2023-01-28T09:05:41;5.90;99.90
59923;DHT22;45778;51.142;3.732;2023-01-28T09:08:10;5.90;99.90
59923;DHT22;45778;51.142;3.732;2023-01-28T09:10:36;5.70;99.90
59923;DHT22;45778;51.142;3.732;2023-01-28T09:13:07;5.50;99.90
59923;DHT22;45778;51.142;3.732;2023-01-28T09:15:34;5.30;99.90
59923;DHT22;45778;51.142;3.732;2023-01-28T09:18:00;5.30;99.90
59923;DHT22;45778;51.142;3.732;2023-01-28T09:20:26;5.40;99.90
59923;DHT22;45778;51.142;3.732;2023-01-28T09:22:52;5.60;99.90
59923;DHT22;45778;51.142;3.732;2023-01-28T09:25:18;5.70;99.90
59923;DHT22;45778;51.142;3.732;2023-01-28T09:27:44;5.80;99.90
59923;DHT22;45778;51.142;3.732;2023-01-28T09:30:10;6.00;99.90
59923;DHT22;45778;51.142;3.732;2023-01-28T09:32:37;6.10;99.90
59923;DHT22;45778;51.142;3.732;2023-01-28T09:35:03;6.00;99.90
59923;DHT22;45778;51.142;3.732;2023-01-28T09:37:29;6.00;99.90
59923;DHT22;45778;51.142;3.732;2023-01-28T09:39:54;6.00;99.90
59923;DHT22;45778;51.142;3.732;2023-01-28T09:42:46;6.20;99.90
59923;DHT22;45778;51.142;3.732;2023-01-28T09:47:55;6.30;99.90
59923;DHT22;45778;51.142;3.732;2023-01-28T09:50:32;6.40;99.90
59923;DHT22;45778;51.142;3.732;2023-01-28T09:56:12;6.50;99.90
59923;DHT22;45778;51.142;3.732;2023-01-28T09:58:40;6.40;99.90
59923;DHT22;45778;51.142;3.732;2023-01-28T10:01:32;6.40;99.90
59923;DHT22;45778;51.142;3.732;2023-01-28T10:06:52;6.60;99.90
59923;DHT22;45778;51.142;3.732;2023-01-28T10:09:24;6.90;99.90
59923;DHT22;45778;51.142;3.732;2023-01-28T10:17:42;7.40;99.90
59923;DHT22;45778;51.142;3.732;2023-01-28T10:25:30;7.60;99.90
59923;DHT22;45778;51.142;3.732;2023-01-28T10:27:56;7.60;99.90
59923;DHT22;45778;51.142;3.732;2023-01-28T10:30:29;7.70;99.90
59923;DHT22;45778;51.142;3.732;2023-01-28T10:33:00;7.70;99.90
59923;DHT22;45778;51.142;3.732;2023-01-28T10:35:32;7.40;99.90
59923;DHT22;45778;51.142;3.732;2023-01-28T10:38:03;7.20;99.90
59923;DHT22;45778;51.142;3.732;2023-01-28T10:40:32;7.00;99.90
59923;DHT22;45778;51.142;3.732;2023-01-28T10:42:58;7.10;99.90
59923;DHT22;45778;51.142;3.732;2023-01-28T10:45:27;7.30;99.90
59923;DHT22;45778;51.142;3.732;2023-01-28T10:50:28;7.10;99.90
59923;DHT22;45778;51.142;3.732;2023-01-28T10:52:57;7.10;99.90
59923;DHT22;45778;51.142;3.732;2023-01-28T10:55:28;7.30;99.90
59923;DHT22;45778;51.142;3.732;2023-01-28T10:57:55;7.40;99.90
59923;DHT22;45778;51.142;3.732;2023-01-28T11:00:33;7.50;99.90
59923;DHT22;45778;51.142;3.732;2023-01-28T11:03:00;7.70;99.90
59923;DHT22;45778;51.142;3.732;2023-01-28T11:05:29;7.70;99.90
59923;DHT22;45778;51.142;3.732;2023-01-28T11:08:11;7.80;99.90
59923;DHT22;45778;51.142;3.732;2023-01-28T11:10:38;8.00;99.90
59923;DHT22;45778;51.142;3.732;2023-01-28T11:13:06;8.00;99.90
59923;DHT22;45778;51.142;3.732;2023-01-28T11:15:49;8.10;99.90
59923;DHT22;45778;51.142;3.732;2023-01-28T11:18:26;8.20;99.90
59923;DHT22;45778;51.142;3.732;2023-01-28T11:21:19;8.20;99.90
59923;DHT22;45778;51.142;3.732;2023-01-28T11:26:18;8.00;99.90
59923;DHT22;45778;51.142;3.732;2023-01-28T11:28:46;8.10;99.90
59923;DHT22;45778;51.142;3.732;2023-01-28T11:31:16;8.10;99.90
59923;DHT22;45778;51.142;3.732;2023-01-28T11:36:20;7.90;99.90
59923;DHT22;45778;51.142;3.732;2023-01-28T11:38:55;7.60;99.90
59923;DHT22;45778;51.142;3.732;2023-01-28T11:41:39;7.70;99.90
59923;DHT22;45778;51.142;3.732;2023-01-28T11:44:20;7.70;99.90
59923;DHT22;45778;51.142;3.732;2023-01-28T12:00:24;8.00;99.90
59923;DHT22;45778;51.142;3.732;2023-01-28T12:03:10;7.90;99.90
59923;DHT22;45778;51.142;3.732;2023-01-28T12:09:34;7.90;99.90
59923;DHT22;45778;51.142;3.732;2023-01-28T12:28:14;10.70;98.20
59923;DHT22;45778;51.142;3.732;2023-01-28T12:44:38;15.20;81.90
59923;DHT22;45778;51.142;3.732;2023-01-28T12:47:11;14.90;78.20
59923;DHT22;45778;51.142;3.732;2023-01-28T12:49:46;15.30;79.90
59923;DHT22;45778;51.142;3.732;2023-01-28T12:52:23;15.10;78.00
59923;DHT22;45778;51.142;3.732;2023-01-28T12:54:58;15.20;77.10
59923;DHT22;45778;51.142;3.732;2023-01-28T12:57:28;15.60;76.30
59923;DHT22;45778;51.142;3.732;2023-01-28T13:02:46;14.30;77.60
59923;DHT22;45778;51.142;3.732;2023-01-28T13:05:17;15.10;77.80
59923;DHT22;45778;51.142;3.732;2023-01-28T13:08:00;15.90;76.70
59923;DHT22;45778;51.142;3.732;2023-01-28T13:13:05;16.00;71.80
59923;DHT22;45778;51.142;3.732;2023-01-28T13:15:35;15.50;71.70
59923;DHT22;45778;51.142;3.732;2023-01-28T13:18:04;14.50;72.90
59923;DHT22;45778;51.142;3.732;2023-01-28T13:20:49;14.80;74.50
59923;DHT22;45778;51.142;3.732;2023-01-28T13:23:45;14.80;72.70
59923;DHT22;45778;51.142;3.732;2023-01-28T13:26:35;15.10;71.60
59923;DHT22;45778;51.142;3.732;2023-01-28T13:31:45;13.90;73.60
59923;DHT22;45778;51.142;3.732;2023-01-28T13:34:37;12.50;77.30
59923;DHT22;45778;51.142;3.732;2023-01-28T13:39:51;10.30;89.90
59923;DHT22;45778;51.142;3.732;2023-01-28T13:42:29;10.30;91.60
59923;DHT22;45778;51.142;3.732;2023-01-28T13:45:07;11.40;90.70
59923;DHT22;45778;51.142;3.732;2023-01-28T13:47:38;12.40;88.20
59923;DHT22;45778;51.142;3.732;2023-01-28T13:50:10;13.20;85.40
59923;DHT22;45778;51.142;3.732;2023-01-28T13:52:57;14.50;77.90
59923;DHT22;45778;51.142;3.732;2023-01-28T13:55:28;14.90;74.40
59923;DHT22;45778;51.142;3.732;2023-01-28T14:17:50;17.90;63.20
59923;DHT22;45778;51.142;3.732;2023-01-28T14:20:24;17.70;63.90
59923;DHT22;45778;51.142;3.732;2023-01-28T14:22:53;17.40;63.80
59923;DHT22;45778;51.142;3.732;2023-01-28T14:28:29;18.00;62.70
59923;DHT22;45778;51.142;3.732;2023-01-28T14:31:10;18.30;62.80
59923;DHT22;45778;51.142;3.732;2023-01-28T14:33:38;18.80;61.90
59923;DHT22;45778;51.142;3.732;2023-01-28T14:36:05;19.10;59.70
59923;DHT22;45778;51.142;3.732;2023-01-28T14:38:38;18.80;58.70
59923;DHT22;45778;51.142;3.732;2023-01-28T14:41:04;18.90;59.40
59923;DHT22;45778;51.142;3.732;2023-01-28T14:43:30;19.00;60.30
59923;DHT22;45778;51.142;3.732;2023-01-28T14:46:08;19.20;59.30
59923;DHT22;45778;51.142;3.732;2023-01-28T14:51:33;19.80;58.70
59923;DHT22;45778;51.142;3.732;2023-01-28T14:59:25;18.10;57.70
59923;DHT22;45778;51.142;3.732;2023-01-28T15:01:54;17.50;59.20
59923;DHT22;45778;51.142;3.732;2023-01-28T15:04:29;16.20;61.10
59923;DHT22;45778;51.142;3.732;2023-01-28T15:06:57;15.10;63.40
59923;DHT22;45778;51.142;3.732;2023-01-28T15:09:25;14.20;65.60
59923;DHT22;45778;51.142;3.732;2023-01-28T15:11:54;13.20;69.10
59923;DHT22;45778;51.142;3.732;2023-01-28T15:14:30;12.60;71.30
59923;DHT22;45778;51.142;3.732;2023-01-28T15:16:56;11.80;74.90
59923;DHT22;45778;51.142;3.732;2023-01-28T15:19:33;11.10;78.80
59923;DHT22;45778;51.142;3.732;2023-01-28T15:22:03;10.60;83.00
59923;DHT22;45778;51.142;3.732;2023-01-28T15:24:32;10.20;87.80
59923;DHT22;45778;51.142;3.732;2023-01-28T15:26:58;10.10;90.40
59923;DHT22;45778;51.142;3.732;2023-01-28T15:29:33;9.60;92.40
59923;DHT22;45778;51.142;3.732;2023-01-28T15:32:00;9.40;93.20
59923;DHT22;45778;51.142;3.732;2023-01-28T15:34:26;9.00;94.90
59923;DHT22;45778;51.142;3.732;2023-01-28T15:36:55;8.50;96.90
59923;DHT22;45778;51.142;3.732;2023-01-28T15:39:23;8.30;97.90
59923;DHT22;45778;51.142;3.732;2023-01-28T15:42:02;8.20;99.10
59923;DHT22;45778;51.142;3.732;2023-01-28T15:44:37;8.00;99.90
59923;DHT22;45778;51.142;3.732;2023-01-28T15:47:23;7.80;99.90
59923;DHT22;45778;51.142;3.732;2023-01-28T15:49:52;7.70;99.90
59923;DHT22;45778;51.142;3.732;2023-01-28T15:52:28;7.70;99.90
59923;DHT22;45778;51.142;3.732;2023-01-28T15:54:54;7.70;99.90
59923;DHT22;45778;51.142;3.732;2023-01-28T15:57:24;7.40;99.90
59923;DHT22;45778;51.142;3.732;2023-01-28T16:00:11;7.30;99.90
59923;DHT22;45778;51.142;3.732;2023-01-28T16:02:52;7.10;99.90
59923;DHT22;45778;51.142;3.732;2023-01-28T16:05:28;7.20;99.90
59923;DHT22;45778;51.142;3.732;2023-01-28T16:07:56;7.10;99.90
59923;DHT22;45778;51.142;3.732;2023-01-28T16:10:26;7.00;99.90
59923;DHT22;45778;51.142;3.732;2023-01-28T16:12:57;6.90;99.90
59923;DHT22;45778;51.142;3.732;2023-01-28T16:15:26;7.00;99.90
59923;DHT22;45778;51.142;3.732;2023-01-28T16:17:52;7.10;99.90
59923;DHT22;45778;51.142;3.732;2023-01-28T16:20:24;6.90;99.90
59923;DHT22;45778;51.142;3.732;2023-01-28T16:22:51;6.90;99.90
59923;DHT22;45778;51.142;3.732;2023-01-28T16:27:49;6.70;99.90
59923;DHT22;45778;51.142;3.732;2023-01-28T16:30:15;6.50;99.90
59923;DHT22;45778;51.142;3.732;2023-01-28T16:32:41;6.30;99.90
59923;DHT22;45778;51.142;3.732;2023-01-28T16:35:27;6.40;99.90
59923;DHT22;45778;51.142;3.732;2023-01-28T16:37:53;6.20;99.90
59923;DHT22;45778;51.142;3.732;2023-01-28T16:40:23;6.10;99.90
59923;DHT22;45778;51.142;3.732;2023-01-28T16:42:53;6.00;99.90
59923;DHT22;45778;51.142;3.732;2023-01-28T16:45:22;5.90;99.90
59923;DHT22;45778;51.142;3.732;2023-01-28T16:47:48;5.80;99.90
59923;DHT22;45778;51.142;3.732;2023-01-28T16:50:15;5.50;99.90
59923;DHT22;45778;51.142;3.732;2023-01-28T16:52:43;5.30;99.90
59923;DHT22;45778;51.142;3.732;2023-01-28T16:55:17;5.20;99.90
59923;DHT22;45778;51.142;3.732;2023-01-28T16:57:45;5.30;99.90
59923;DHT22;45778;51.142;3.732;2023-01-28T17:00:22;5.10;99.90
59923;DHT22;45778;51.142;3.732;2023-01-28T17:02:49;5.00;99.90
59923;DHT22;45778;51.142;3.732;2023-01-28T17:05:15;4.70;99.90
59923;DHT22;45778;51.142;3.732;2023-01-28T17:07:41;4.60;99.90
59923;DHT22;45778;51.142;3.732;2023-01-28T17:10:07;4.50;99.90
59923;DHT22;45778;51.142;3.732;2023-01-28T17:12:33;4.40;99.90
59923;DHT22;45778;51.142;3.732;2023-01-28T17:14:59;4.40;99.90
59923;DHT22;45778;51.142;3.732;2023-01-28T17:17:25;4.40;99.90
59923;DHT22;45778;51.142;3.732;2023-01-28T17:19:51;4.40;99.90
59923;DHT22;45778;51.142;3.732;2023-01-28T17:22:16;4.60;99.90
59923;DHT22;45778;51.142;3.732;2023-01-28T17:24:42;4.60;99.90
59923;DHT22;45778;51.142;3.732;2023-01-28T17:27:08;4.50;99.90
59923;DHT22;45778;51.142;3.732;2023-01-28T17:29:34;4.40;99.90
59923;DHT22;45778;51.142;3.732;2023-01-28T17:32:00;4.40;99.90
59923;DHT22;45778;51.142;3.732;2023-01-28T17:34:26;4.40;99.90
59923;DHT22;45778;51.142;3.732;2023-01-28T17:36:51;4.40;99.90
59923;DHT22;45778;51.142;3.732;2023-01-28T17:39:17;4.20;99.90
59923;DHT22;45778;51.142;3.732;2023-01-28T17:41:43;4.00;99.90
59923;DHT22;45778;51.142;3.732;2023-01-28T17:44:11;3.80;99.90
59923;DHT22;45778;51.142;3.732;2023-01-28T17:46:37;3.70;99.90
59923;DHT22;45778;51.142;3.732;2023-01-28T17:49:02;3.60;99.90
59923;DHT22;45778;51.142;3.732;2023-01-28T17:51:28;3.60;99.90
59923;DHT22;45778;51.142;3.732;2023-01-28T17:53:54;3.60;99.90
59923;DHT22;45778;51.142;3.732;2023-01-28T17:56:24;3.60;99.90
59923;DHT22;45778;51.142;3.732;2023-01-28T17:58:52;3.70;99.90
59923;DHT22;45778;51.142;3.732;2023-01-28T18:01:19;3.60;99.90
59923;DHT22;45778;51.142;3.732;2023-01-28T18:03:44;3.60;99.90
59923;DHT22;45778;51.142;3.732;2023-01-28T18:06:10;3.60;99.90
59923;DHT22;45778;51.142;3.732;2023-01-28T18:08:36;3.60;99.90
59923;DHT22;45778;51.142;3.732;2023-01-28T18:11:02;3.60;99.90
59923;DHT22;45778;51.142;3.732;2023-01-28T18:13:31;3.60;99.90
59923;DHT22;45778;51.142;3.732;2023-01-28T18:15:59;3.60;99.90
59923;DHT22;45778;51.142;3.732;2023-01-28T18:18:24;3.70;99.90
59923;DHT22;45778;51.142;3.732;2023-01-28T18:21:04;3.80;99.90
59923;DHT22;45778;51.142;3.732;2023-01-28T18:23:31;3.80;99.90